createdAt,value
2022-10-11T00:00:54.272Z,12.33
2022-10-11T00:03:35.872Z,12.36
2022-10-11T00:06:17.709Z,12.38
2022-10-11T00:08:58.725Z,12.37
2022-10-11T00:11:40.219Z,12.36
2022-10-11T00:14:21.380Z,12.30
2022-10-11T00:17:02.950Z,12.29
2022-10-11T00:19:44.344Z,12.24
2022-10-11T00:22:25.697Z,12.22
2022-10-11T00:25:09.680Z,12.17
2022-10-11T00:27:50.571Z,12.12
2022-10-11T00:30:31.542Z,12.10
2022-10-11T00:33:12.817Z,12.15
2022-10-11T00:35:54.287Z,12.14
2022-10-11T00:38:36.115Z,12.12
2022-10-11T00:41:17.988Z,12.14
2022-10-11T00:44:12.119Z,12.14
2022-10-11T00:46:58.782Z,12.19
2022-10-11T00:49:44.318Z,12.11
2022-10-11T00:52:32.068Z,12.07
2022-10-11T00:55:19.247Z,12.01
2022-10-11T00:58:00.882Z,12.01
2022-10-11T01:00:42.043Z,11.98
2022-10-11T01:03:28.620Z,11.98
2022-10-11T01:06:10.348Z,11.91
2022-10-11T01:08:53.622Z,11.83
2022-10-11T01:11:43.851Z,11.84
2022-10-11T01:14:44.522Z,11.82
2022-10-11T01:17:34.691Z,11.77
2022-10-11T01:20:36.820Z,11.81
2022-10-11T01:23:51.189Z,11.76
2022-10-11T01:27:07.382Z,11.82
2022-10-11T01:29:57.692Z,11.79
2022-10-11T01:32:49.267Z,11.80
2022-10-11T01:35:38.803Z,11.70
2022-10-11T01:38:28.451Z,11.76
2022-10-11T01:41:15.393Z,11.77
2022-10-11T01:44:00.466Z,11.76
2022-10-11T01:46:42.343Z,11.85
2022-10-11T01:49:23.365Z,11.77
2022-10-11T01:52:07.343Z,11.76
2022-10-11T01:55:10.305Z,11.79
2022-10-11T01:58:09.559Z,11.81
2022-10-11T02:00:59.590Z,11.84
2022-10-11T02:03:48.455Z,11.77
2022-10-11T02:06:35.950Z,11.80
2022-10-11T02:09:25.926Z,11.78
2022-10-11T02:12:11.634Z,11.80
2022-10-11T02:14:57.962Z,11.85
2022-10-11T02:17:44.792Z,11.90
2022-10-11T02:20:30.022Z,11.89
2022-10-11T02:23:14.946Z,11.89
2022-10-11T02:25:57.782Z,11.89
2022-10-11T02:28:43.235Z,11.87
2022-10-11T02:31:27.194Z,11.92
2022-10-11T02:34:14.095Z,11.93
2022-10-11T02:37:03.756Z,11.88
2022-10-11T02:39:49.885Z,11.89
2022-10-11T02:42:37.688Z,11.91
2022-10-11T02:45:25.884Z,11.92
2022-10-11T02:48:10.252Z,11.93
2022-10-11T02:50:51.753Z,11.91
2022-10-11T02:53:34.334Z,11.87
2022-10-11T02:56:16.138Z,11.93
2022-10-11T02:58:57.582Z,11.95
2022-10-11T03:01:39.027Z,11.96
2022-10-11T03:04:20.358Z,11.98
2022-10-11T03:07:01.727Z,11.99
2022-10-11T03:09:43.125Z,11.97
2022-10-11T03:12:24.599Z,11.98
2022-10-11T03:15:06.842Z,11.98
2022-10-11T03:17:47.336Z,12.00
2022-10-11T03:20:28.946Z,12.02
2022-10-11T03:23:10.226Z,12.01
2022-10-11T03:25:52.286Z,12.01
2022-10-11T03:28:33.208Z,12.03
2022-10-11T03:31:14.304Z,12.00
2022-10-11T03:33:55.703Z,12.03
2022-10-11T03:36:37.213Z,12.06
2022-10-11T03:39:18.735Z,12.07
2022-10-11T03:41:59.938Z,12.07
2022-10-11T03:44:42.472Z,12.03
2022-10-11T03:47:11.653Z,12.03
2022-10-11T03:49:43.666Z,12.05
2022-10-11T03:52:13.174Z,12.06
2022-10-11T03:54:41.817Z,11.97
2022-10-11T03:57:10.440Z,11.91
2022-10-11T03:59:40.500Z,11.89
2022-10-11T04:02:09.246Z,11.91
2022-10-11T04:04:37.898Z,11.89
2022-10-11T04:07:06.653Z,11.91
2022-10-11T04:09:36.345Z,11.96
2022-10-11T04:12:05.093Z,11.97
2022-10-11T04:14:33.687Z,11.99
2022-10-11T04:17:03.743Z,11.98
2022-10-11T04:19:32.414Z,11.92
2022-10-11T04:22:00.922Z,12.02
2022-10-11T04:24:29.717Z,12.02
2022-10-11T04:26:58.493Z,12.02
2022-10-11T04:29:32.185Z,12.01
2022-10-11T04:32:01.643Z,12.03
2022-10-11T04:34:31.678Z,12.03
2022-10-11T04:37:00.343Z,12.06
2022-10-11T04:39:28.928Z,12.01
2022-10-11T04:41:57.698Z,12.00
2022-10-11T04:44:26.305Z,11.91
2022-10-11T04:46:56.237Z,11.88
2022-10-11T04:49:38.798Z,11.80
2022-10-11T04:52:23.416Z,11.78
2022-10-11T04:55:07.258Z,11.81
2022-10-11T04:57:47.743Z,11.85
2022-10-11T05:00:29.166Z,11.70
2022-10-11T05:03:10.547Z,11.94
2022-10-11T05:05:53.048Z,11.96
2022-10-11T05:08:35.155Z,11.97
2022-10-11T05:11:17.196Z,11.97
2022-10-11T05:13:58.052Z,11.94
2022-10-11T05:16:39.209Z,11.91
2022-10-11T05:19:20.595Z,11.92
2022-10-11T05:22:01.946Z,11.88
2022-10-11T05:24:43.353Z,11.80
2022-10-11T05:27:24.752Z,11.83
2022-10-11T05:30:07.693Z,11.91
2022-10-11T05:32:49.168Z,11.91
2022-10-11T05:35:30.386Z,11.84
2022-10-11T05:38:12.196Z,11.83
2022-10-11T05:40:53.468Z,11.88
2022-10-11T05:43:34.877Z,11.92
2022-10-11T05:46:16.277Z,11.97
2022-10-11T05:48:57.508Z,11.96
2022-10-11T05:51:26.470Z,11.98
2022-10-11T05:53:55.056Z,12.01
2022-10-11T05:56:26.379Z,12.05
2022-10-11T05:58:58.778Z,12.11
2022-10-11T06:01:31.247Z,12.15
2022-10-11T06:04:01.300Z,12.12
2022-10-11T06:06:29.962Z,12.16
2022-10-11T06:08:58.576Z,12.21
2022-10-11T06:11:28.931Z,12.24
2022-10-11T06:13:59.378Z,12.29
2022-10-11T06:16:28.489Z,12.31
2022-10-11T06:18:58.127Z,12.29
2022-10-11T06:21:28.129Z,12.33
2022-10-11T06:24:01.056Z,12.35
2022-10-11T06:26:30.944Z,12.38
2022-10-11T06:28:59.767Z,12.37
2022-10-11T06:31:28.612Z,12.39
2022-10-11T06:33:57.215Z,12.44
2022-10-11T06:36:27.378Z,12.48
2022-10-11T06:38:56.908Z,12.55
2022-10-11T06:41:28.781Z,12.59
2022-10-11T06:43:58.147Z,12.62
2022-10-11T06:46:29.420Z,12.68
2022-10-11T06:48:58.494Z,12.70
2022-10-11T06:51:52.702Z,12.72
2022-10-11T06:54:45.003Z,12.74
2022-10-11T06:57:37.385Z,12.73
2022-10-11T07:00:28.170Z,12.75
2022-10-11T07:03:23.075Z,12.77
2022-10-11T07:06:23.052Z,12.78
2022-10-11T07:09:13.917Z,12.87
2022-10-11T07:12:09.891Z,12.94
2022-10-11T07:14:59.898Z,12.99
2022-10-11T07:17:49.980Z,13.07
2022-10-11T07:20:44.970Z,13.13
2022-10-11T07:23:39.322Z,13.24
2022-10-11T07:26:37.639Z,13.33
2022-10-11T07:29:29.947Z,13.41
2022-10-11T07:32:21.081Z,13.52
2022-10-11T07:35:16.065Z,13.60
2022-10-11T07:38:08.536Z,13.63
2022-10-11T07:41:06.620Z,13.65
2022-10-11T07:43:57.874Z,13.67
2022-10-11T07:46:55.779Z,13.71
2022-10-11T07:49:46.226Z,13.76
2022-10-11T07:52:38.206Z,13.78
2022-10-11T07:55:31.444Z,13.84
2022-10-11T07:58:26.378Z,13.90
2022-10-11T08:01:15.660Z,13.95
2022-10-11T08:04:16.455Z,14.02
2022-10-11T08:07:16.418Z,14.09
2022-10-11T08:10:08.900Z,14.12
2022-10-11T08:13:04.112Z,14.15
2022-10-11T08:16:10.428Z,14.19
2022-10-11T08:19:05.186Z,14.23
2022-10-11T08:21:55.325Z,14.25
2022-10-11T08:24:46.277Z,14.27
2022-10-11T08:27:41.506Z,14.27
2022-10-11T08:30:33.293Z,14.29
2022-10-11T08:33:28.194Z,14.31
2022-10-11T08:36:24.060Z,14.32
2022-10-11T08:39:14.058Z,14.31
2022-10-11T08:42:08.149Z,14.35
2022-10-11T08:45:11.457Z,14.39
2022-10-11T08:48:19.114Z,14.45
2022-10-11T08:51:22.929Z,14.46
2022-10-11T08:54:22.574Z,14.49
2022-10-11T08:57:26.220Z,14.51
2022-10-11T09:00:34.563Z,14.60
2022-10-11T09:03:12.466Z,14.63
2022-10-11T09:05:54.056Z,14.66
2022-10-11T09:08:31.920Z,14.70
2022-10-11T09:11:05.304Z,14.76
2022-10-11T09:13:52.588Z,14.76
2022-10-11T09:16:31.372Z,14.76
2022-10-11T09:19:31.411Z,14.72
2022-10-11T09:22:08.754Z,14.90
2022-10-11T09:25:04.553Z,14.96
2022-10-11T09:28:01.389Z,14.95
2022-10-11T09:30:27.114Z,15.07
2022-10-11T09:33:11.401Z,15.18
2022-10-11T09:35:43.836Z,15.19
2022-10-11T09:38:23.241Z,15.24
2022-10-11T09:41:07.329Z,15.31
2022-10-11T09:43:36.620Z,15.28
2022-10-11T09:46:05.466Z,15.33
2022-10-11T09:48:43.437Z,15.33
2022-10-11T09:51:16.290Z,15.34
2022-10-11T09:53:53.604Z,15.35
2022-10-11T09:56:22.957Z,15.41
2022-10-11T09:59:08.744Z,15.39
2022-10-11T10:01:39.221Z,15.54
2022-10-11T10:04:14.234Z,15.56
2022-10-11T10:06:42.981Z,15.56
2022-10-11T10:09:26.644Z,15.61
2022-10-11T10:11:56.120Z,15.63
2022-10-11T10:14:28.528Z,15.66
2022-10-11T10:17:06.032Z,15.66
2022-10-11T10:19:44.963Z,15.62
2022-10-11T10:22:19.411Z,15.67
2022-10-11T10:24:50.587Z,15.62
2022-10-11T10:27:24.611Z,15.71
2022-10-11T10:30:14.621Z,15.74
2022-10-11T10:32:53.431Z,15.77
2022-10-11T10:35:32.914Z,15.82
2022-10-11T10:38:14.281Z,15.87
2022-10-11T10:40:46.493Z,15.93
2022-10-11T10:43:17.764Z,15.88
2022-10-11T10:46:10.961Z,16.05
2022-10-11T10:51:50.963Z,16.42
2022-10-11T10:54:33.700Z,16.44
2022-10-11T10:57:05.823Z,16.47
2022-10-11T10:59:56.180Z,16.47
2022-10-11T11:02:45.930Z,16.55
2022-10-11T11:05:21.702Z,16.57
2022-10-11T11:07:59.131Z,16.63
2022-10-11T11:10:35.853Z,16.67
2022-10-11T11:13:21.425Z,16.72
2022-10-11T11:15:56.858Z,16.77
2022-10-11T11:18:35.744Z,16.91
2022-10-11T11:21:29.263Z,17.07
2022-10-11T11:24:08.397Z,17.39
2022-10-11T11:26:45.968Z,17.46
2022-10-11T11:29:29.354Z,17.88
2022-10-11T11:32:10.756Z,18.06
2022-10-11T11:34:44.026Z,18.19
2022-10-11T11:37:23.279Z,18.19
2022-10-11T11:39:58.859Z,18.16
2022-10-11T11:42:35.751Z,18.21
2022-10-11T11:45:15.289Z,18.37
2022-10-11T11:47:48.740Z,18.49
2022-10-11T11:50:22.889Z,18.52
2022-10-11T11:52:55.804Z,18.18
2022-10-11T11:55:33.057Z,18.61
2022-10-11T11:58:14.268Z,18.74
2022-10-11T12:00:54.484Z,18.92
2022-10-11T12:03:26.876Z,18.87
2022-10-11T12:06:16.646Z,18.98
2022-10-11T12:08:48.614Z,19.08
2022-10-11T12:11:26.020Z,19.23
2022-10-11T12:13:56.218Z,19.34
2022-10-11T12:16:25.039Z,19.43
2022-10-11T12:19:02.181Z,19.56
2022-10-11T12:21:33.851Z,19.50
2022-10-11T12:24:12.413Z,19.56
2022-10-11T12:26:44.960Z,19.69
2022-10-11T12:29:43.857Z,19.78
2022-10-11T12:32:53.345Z,19.82
2022-10-11T12:35:32.623Z,19.96
2022-10-11T12:38:07.708Z,19.82
2022-10-11T12:40:42.350Z,19.64
2022-10-11T12:43:24.960Z,19.37
2022-10-11T12:45:54.373Z,19.21
2022-10-11T12:48:47.031Z,19.13
2022-10-11T12:51:36.573Z,19.02
2022-10-11T12:54:28.047Z,19.02
2022-10-11T12:57:28.014Z,19.28
2022-10-11T13:00:18.791Z,19.25
2022-10-11T13:02:49.340Z,19.20
2022-10-11T13:05:23.398Z,19.11
2022-10-11T13:07:52.962Z,19.07
2022-10-11T13:10:27.649Z,19.30
2022-10-11T13:12:59.916Z,19.46
2022-10-11T13:15:30.326Z,19.50
2022-10-11T13:18:01.653Z,19.61
2022-10-11T13:20:32.650Z,19.68
2022-10-11T13:23:02.139Z,19.81
2022-10-11T13:25:37.794Z,19.89
2022-10-11T13:28:11.604Z,20.00
2022-10-11T13:30:46.686Z,20.08
2022-10-11T13:33:22.610Z,20.16
2022-10-11T13:35:53.264Z,20.14
2022-10-11T13:38:24.690Z,20.08
2022-10-11T13:40:53.864Z,20.20
2022-10-11T13:43:26.590Z,20.23
2022-10-11T13:45:58.850Z,20.08
2022-10-11T13:48:31.949Z,19.97
2022-10-11T13:51:07.956Z,20.00
2022-10-11T13:53:36.802Z,19.87
2022-10-11T13:56:07.547Z,19.81
2022-10-11T13:58:40.839Z,19.86
2022-10-11T14:01:22.523Z,19.85
2022-10-11T14:03:56.912Z,19.73
2022-10-11T14:06:40.343Z,19.71
2022-10-11T14:09:19.639Z,19.68
2022-10-11T14:11:49.113Z,19.64
2022-10-11T14:14:40.238Z,19.65
2022-10-11T14:17:16.704Z,19.56
2022-10-11T14:19:46.690Z,19.62
2022-10-11T14:22:17.922Z,19.67
2022-10-11T14:24:49.830Z,19.56
2022-10-11T14:27:22.742Z,19.43
2022-10-11T14:30:13.005Z,19.25
2022-10-11T14:32:44.313Z,19.16
2022-10-11T14:35:18.392Z,19.08
2022-10-11T14:37:47.392Z,19.00
2022-10-11T14:40:19.719Z,18.93
2022-10-11T14:42:48.868Z,18.87
2022-10-11T14:45:17.973Z,18.77
2022-10-11T14:47:49.355Z,18.74
2022-10-11T14:50:34.004Z,18.66
2022-10-11T14:53:03.190Z,18.58
2022-10-11T14:55:32.302Z,18.51
2022-10-11T14:58:01.234Z,18.48
2022-10-11T15:00:31.109Z,18.42
2022-10-11T15:03:01.308Z,18.35
2022-10-11T15:05:34.226Z,18.30
2022-10-11T15:08:03.672Z,18.25
2022-10-11T15:10:36.954Z,18.23
2022-10-11T15:13:08.262Z,18.17
2022-10-11T15:15:41.239Z,18.14
2022-10-11T15:18:16.944Z,18.09
2022-10-11T15:20:48.217Z,18.04
2022-10-11T15:23:16.853Z,18.00
2022-10-11T15:25:45.462Z,17.93
2022-10-11T15:28:22.339Z,17.86
2022-10-11T15:30:51.061Z,17.82
2022-10-11T15:33:21.156Z,17.72
2022-10-11T15:35:50.212Z,17.69
2022-10-11T15:38:21.832Z,17.65
2022-10-11T15:40:51.363Z,17.59
2022-10-11T15:43:24.419Z,17.53
2022-10-11T15:45:53.946Z,17.46
2022-10-11T15:48:26.561Z,17.37
2022-10-11T15:50:56.022Z,17.31
2022-10-11T15:53:28.861Z,17.25
2022-10-11T15:55:59.649Z,17.18
2022-10-11T15:58:30.315Z,17.14
2022-10-11T16:01:02.504Z,16.96
2022-10-11T16:03:33.830Z,17.01
2022-10-11T16:06:05.389Z,16.89
2022-10-11T16:08:35.025Z,16.87
2022-10-11T16:11:04.104Z,16.80
2022-10-11T16:13:33.091Z,16.71
2022-10-11T16:16:02.439Z,16.63
2022-10-11T16:18:35.299Z,16.52
2022-10-11T16:21:08.631Z,16.46
2022-10-11T16:23:38.061Z,16.40
2022-10-11T16:26:09.909Z,16.34
2022-10-11T16:28:39.238Z,16.28
2022-10-11T16:31:09.225Z,16.25
2022-10-11T16:33:46.341Z,16.17
2022-10-11T16:36:27.543Z,16.12
2022-10-11T16:38:56.282Z,16.06
2022-10-11T16:41:24.879Z,16.03
2022-10-11T16:43:54.148Z,15.98
2022-10-11T16:46:23.060Z,15.90
2022-10-11T16:48:55.345Z,15.81
2022-10-11T16:51:24.471Z,15.73
2022-10-11T16:53:53.884Z,15.65
2022-10-11T16:56:24.516Z,15.60
2022-10-11T16:58:54.308Z,15.54
2022-10-11T17:01:23.431Z,15.50
2022-10-11T17:03:53.674Z,15.46
2022-10-11T17:06:22.658Z,15.41
2022-10-11T17:08:51.532Z,15.40
2022-10-11T17:11:21.942Z,15.34
2022-10-11T17:13:53.603Z,15.31
2022-10-11T17:16:22.836Z,15.27
2022-10-11T17:18:51.553Z,15.24
2022-10-11T17:21:23.323Z,15.18
2022-10-11T17:23:52.567Z,15.15
2022-10-11T17:26:23.438Z,15.12
2022-10-11T17:28:52.863Z,15.05
2022-10-11T17:31:21.655Z,15.00
2022-10-11T17:33:50.361Z,14.91
2022-10-11T17:36:23.921Z,14.85
2022-10-11T17:38:53.082Z,14.82
2022-10-11T17:41:22.254Z,14.82
2022-10-11T17:43:51.044Z,14.77
2022-10-11T17:46:22.875Z,14.73
2022-10-11T17:48:55.092Z,14.72
2022-10-11T17:51:25.712Z,14.68
2022-10-11T17:53:55.393Z,14.61
2022-10-11T17:56:29.572Z,14.52
2022-10-11T17:59:00.742Z,14.32
2022-10-11T18:01:30.936Z,14.29
2022-10-11T18:04:02.442Z,14.27
2022-10-11T18:06:34.954Z,14.32
2022-10-11T18:09:05.757Z,14.32
2022-10-11T18:11:34.796Z,14.27
2022-10-11T18:14:03.487Z,14.19
2022-10-11T18:16:33.320Z,14.18
2022-10-11T18:19:04.509Z,14.07
2022-10-11T18:21:35.176Z,13.98
2022-10-11T18:24:08.035Z,13.93
2022-10-11T18:26:36.612Z,13.90
2022-10-11T18:29:07.473Z,13.77
2022-10-11T18:31:36.370Z,13.65
2022-10-11T18:34:06.787Z,13.64
2022-10-11T18:36:37.269Z,13.56
2022-10-11T18:39:08.038Z,13.37
2022-10-11T18:41:37.037Z,13.32
2022-10-11T18:44:09.390Z,13.39
2022-10-11T18:46:39.248Z,13.41
2022-10-11T18:49:08.537Z,13.35
2022-10-11T18:51:40.968Z,13.43
2022-10-11T18:54:18.315Z,13.48
2022-10-11T18:56:50.481Z,13.49
2022-10-11T18:59:20.646Z,13.43
2022-10-11T19:01:52.445Z,13.36
2022-10-11T19:04:22.004Z,13.28
2022-10-11T19:06:53.768Z,13.37
2022-10-11T19:09:26.310Z,13.37
2022-10-11T19:11:57.450Z,13.29
2022-10-11T19:14:28.558Z,13.27
2022-10-11T19:16:58.869Z,13.24
2022-10-11T19:19:33.241Z,13.18
2022-10-11T19:22:04.020Z,13.10
2022-10-11T19:24:33.547Z,13.00
2022-10-11T19:27:03.172Z,12.93
2022-10-11T19:29:32.950Z,12.88
2022-10-11T19:32:04.385Z,12.87
2022-10-11T19:34:33.364Z,12.85
2022-10-11T19:37:04.459Z,12.79
2022-10-11T19:39:33.367Z,12.73
2022-10-11T19:42:02.761Z,12.59
2022-10-11T19:44:35.710Z,12.55
2022-10-11T19:47:07.762Z,12.52
2022-10-11T19:49:36.305Z,12.45
2022-10-11T19:52:06.400Z,12.42
2022-10-11T19:54:35.159Z,12.36
2022-10-11T19:57:03.727Z,12.55
2022-10-11T19:59:32.429Z,12.60
2022-10-11T20:02:01.107Z,12.59
2022-10-11T20:07:20.117Z,12.54
2022-10-11T20:09:49.352Z,12.52
2022-10-11T20:12:18.142Z,12.50
2022-10-11T20:14:46.981Z,12.58
2022-10-11T20:17:16.282Z,12.64
2022-10-11T20:19:44.917Z,12.68
2022-10-11T20:22:13.619Z,12.73
2022-10-11T20:24:43.518Z,12.71
2022-10-11T20:27:12.230Z,12.65
2022-10-11T20:29:40.870Z,12.66
2022-10-11T20:32:09.518Z,12.71
2022-10-11T20:34:39.712Z,12.76
2022-10-11T20:37:08.371Z,12.84
2022-10-11T20:39:37.130Z,12.86
2022-10-11T20:42:07.239Z,12.87
2022-10-11T20:44:35.910Z,12.89
2022-10-11T20:47:04.540Z,12.91
2022-10-11T20:49:33.383Z,12.86
2022-10-11T20:52:02.063Z,12.90
2022-10-11T20:54:31.942Z,12.84
2022-10-11T20:57:00.769Z,12.84
2022-10-11T20:59:30.970Z,12.79
2022-10-11T21:01:59.904Z,12.74
2022-10-11T21:04:28.418Z,12.71
2022-10-11T21:06:57.118Z,12.71
2022-10-11T21:09:26.194Z,12.73
2022-10-11T21:11:54.781Z,12.71
2022-10-11T21:14:23.952Z,12.65
2022-10-11T21:16:53.939Z,12.62
2022-10-11T21:19:22.530Z,12.62
2022-10-11T21:21:53.811Z,12.63
2022-10-11T21:24:23.265Z,12.63
2022-10-11T21:26:51.776Z,12.64
2022-10-11T21:29:20.411Z,12.59
2022-10-11T21:31:48.919Z,12.61
2022-10-11T21:34:18.948Z,12.61
2022-10-11T21:36:47.488Z,12.49
2022-10-11T21:39:16.456Z,12.59
2022-10-11T21:41:45.191Z,12.55
2022-10-11T21:44:14.072Z,12.54
2022-10-11T21:47:05.629Z,12.55
2022-10-11T21:49:32.959Z,12.53
2022-10-11T21:52:01.783Z,12.44
2022-10-11T21:54:30.370Z,12.36
2022-10-11T21:56:59.770Z,12.29
2022-10-11T21:59:28.340Z,12.29
2022-10-11T22:02:01.465Z,12.29
2022-10-11T22:04:32.391Z,12.25
2022-10-11T22:07:01.079Z,12.24
2022-10-11T22:09:30.053Z,12.28
2022-10-11T22:11:58.694Z,12.30
2022-10-11T22:14:28.560Z,12.31
2022-10-11T22:16:57.078Z,12.27
2022-10-11T22:19:26.069Z,12.24
2022-10-11T22:21:55.995Z,12.24
2022-10-11T22:24:24.648Z,12.22
2022-10-11T22:26:53.141Z,12.13
2022-10-11T22:29:21.921Z,12.12
2022-10-11T22:31:50.580Z,12.07
2022-10-11T22:34:19.248Z,12.12
2022-10-11T22:36:47.832Z,12.12
2022-10-11T22:39:17.770Z,12.13
2022-10-11T22:41:46.389Z,12.12
2022-10-11T22:44:15.550Z,11.99
2022-10-11T22:46:44.391Z,12.05
2022-10-11T22:49:13.290Z,12.06
2022-10-11T22:51:42.004Z,12.12
2022-10-11T22:54:11.901Z,12.12
2022-10-11T22:56:42.240Z,12.12
2022-10-11T22:59:11.096Z,12.10
2022-10-11T23:01:39.782Z,12.08
2022-10-11T23:04:08.669Z,12.08
2022-10-11T23:06:37.322Z,12.09
2022-10-11T23:09:06.003Z,12.10
2022-10-11T23:11:34.611Z,12.08
2022-10-11T23:14:04.723Z,12.10
2022-10-11T23:16:35.931Z,12.07
2022-10-11T23:19:04.694Z,12.10
2022-10-11T23:21:33.521Z,12.07
2022-10-11T23:24:02.185Z,12.03
2022-10-11T23:26:30.810Z,12.05
2022-10-11T23:28:59.520Z,12.08
2022-10-11T23:31:30.330Z,12.07
2022-10-11T23:33:59.421Z,11.99
2022-10-11T23:36:28.022Z,12.09
2022-10-11T23:38:58.209Z,12.08
2022-10-11T23:41:28.996Z,12.06
2022-10-11T23:43:58.639Z,12.08
2022-10-11T23:46:27.313Z,12.10
2022-10-11T23:48:57.652Z,12.10
2022-10-11T23:51:26.419Z,12.15
2022-10-11T23:53:55.083Z,12.19
2022-10-11T23:56:24.211Z,12.20
2022-10-11T23:58:53.290Z,11.97
